Time;durP1;ratioP1;P1;durP2;ratioP2;P2;SDS_P1;SDS_P2;PMS_P1;PMS_P2;Temp;Humidity;BMP_temperature;BMP_pressure;BME280_temperature;BME280_humidity;BME280_pressure;Samples;Min_cycle;Max_cycle;Signal;HPM_P1;HPM_P2
2022/05/27 00:01:18;;;;;;;0.10;0.10;;;12.40;99.90;;;;;;5005603;28;20473;-82
2022/05/27 00:03:44;;;;;;;0.10;0.10;;;12.30;99.90;;;;;;5001324;28;20538;-82
2022/05/27 00:06:10;;;;;;;0.10;0.10;;;12.30;99.90;;;;;;5006652;28;20534;-81
2022/05/27 00:08:36;;;;;;;0.20;0.20;;;12.40;99.90;;;;;;4982125;28;20597;-80
2022/05/27 00:11:02;;;;;;;0.13;0.13;;;12.30;99.90;;;;;;5002872;28;20199;-82
2022/05/27 00:13:29;;;;;;;0.20;0.20;;;12.40;99.90;;;;;;4995797;28;20192;-84
2022/05/27 00:15:55;;;;;;;0.10;0.10;;;12.40;99.90;;;;;;4986031;28;20444;-83
2022/05/27 00:18:21;;;;;;;0.10;0.10;;;12.30;99.90;;;;;;5000045;28;20942;-82
2022/05/27 00:20:47;;;;;;;0.20;0.20;;;12.40;99.90;;;;;;4994187;28;20465;-82
2022/05/27 00:23:13;;;;;;;0.10;0.10;;;12.40;99.90;;;;;;5001695;28;20188;-83
2022/05/27 00:25:39;;;;;;;0.20;0.20;;;12.40;99.90;;;;;;5003022;28;20821;-84
2022/05/27 00:28:04;;;;;;;0.20;0.20;;;12.40;99.90;;;;;;4999799;28;20467;-84
2022/05/27 00:30:30;;;;;;;0.10;0.10;;;12.40;99.90;;;;;;5000382;28;20368;-82
2022/05/27 00:32:56;;;;;;;0.20;0.20;;;12.40;99.90;;;;;;5000092;28;20189;-81
2022/05/27 00:35:22;;;;;;;0.20;0.20;;;12.30;99.90;;;;;;5003068;28;20262;-82
2022/05/27 00:37:47;;;;;;;0.20;0.20;;;12.30;99.90;;;;;;4996896;28;20439;-82
2022/05/27 00:40:14;;;;;;;0.40;0.40;;;12.30;99.90;;;;;;4988445;28;20573;-81
2022/05/27 00:42:42;;;;;;;0.20;0.20;;;12.20;99.90;;;;;;4991033;28;20200;-87
2022/05/27 00:45:16;;;;;;;0.20;0.20;;;12.10;99.90;;;;;;4976262;28;20574;-81
2022/05/27 00:47:44;;;;;;;0.20;0.20;;;12.10;99.90;;;;;;4978571;28;20454;-82
2022/05/27 00:50:15;;;;;;;0.10;0.10;;;12.00;99.90;;;;;;5006840;28;20462;-82
2022/05/27 00:52:42;;;;;;;0.20;0.20;;;12.00;99.90;;;;;;4997223;28;21254;-81
2022/05/27 00:55:12;;;;;;;0.10;0.10;;;12.00;99.90;;;;;;4999542;28;20443;-83
2022/05/27 00:57:44;;;;;;;0.20;0.20;;;12.00;99.90;;;;;;4999130;28;20431;-83
2022/05/27 01:00:14;;;;;;;0.20;0.20;;;12.00;99.90;;;;;;4988424;28;20656;-84
2022/05/27 01:02:40;;;;;;;0.30;0.30;;;11.90;99.90;;;;;;5001045;28;20550;-84
2022/05/27 01:05:08;;;;;;;0.10;0.10;;;11.80;99.90;;;;;;5003189;28;20542;-82
2022/05/27 01:07:34;;;;;;;0.10;0.10;;;11.80;99.90;;;;;;4998589;28;20526;-83
2022/05/27 01:10:03;;;;;;;0.20;0.20;;;11.80;99.90;;;;;;4999899;28;20590;-84
2022/05/27 01:12:47;;;;;;;0.10;0.10;;;11.80;99.90;;;;;;4984932;28;20180;-83
2022/05/27 01:15:34;;;;;;;0.10;0.10;;;11.70;99.90;;;;;;4998344;28;20813;-84
2022/05/27 01:18:20;;;;;;;0.10;0.10;;;11.70;99.90;;;;;;4981337;28;20466;-82
2022/05/27 01:20:52;;;;;;;0.17;0.17;;;11.60;99.90;;;;;;4999993;28;20549;-84
2022/05/27 01:23:50;;;;;;;0.10;0.10;;;11.60;99.90;;;;;;4987902;28;20462;-85
2022/05/27 01:26:24;;;;;;;0.10;0.10;;;11.60;99.90;;;;;;4997364;28;20458;-83
2022/05/27 01:28:58;;;;;;;0.10;0.10;;;11.70;99.90;;;;;;4991483;28;20470;-83
2022/05/27 01:31:45;;;;;;;0.20;0.20;;;11.60;99.90;;;;;;4990161;28;20484;-84
2022/05/27 01:34:26;;;;;;;0.20;0.20;;;11.50;99.90;;;;;;4999330;28;20439;-83
2022/05/27 01:37:05;;;;;;;0.60;0.60;;;11.50;99.90;;;;;;5003683;28;20457;-87
2022/05/27 01:39:33;;;;;;;0.20;0.20;;;11.40;99.90;;;;;;4993049;28;20961;-84
2022/05/27 01:42:19;;;;;;;0.20;0.20;;;11.40;99.90;;;;;;5004905;28;20446;-83
2022/05/27 01:44:45;;;;;;;0.40;0.40;;;11.40;99.90;;;;;;4988865;28;20444;-83
2022/05/27 01:47:18;;;;;;;0.10;0.10;;;11.30;99.90;;;;;;5007851;28;20796;-81
2022/05/27 01:49:48;;;;;;;0.20;0.20;;;11.40;99.90;;;;;;5004094;28;20311;-84
2022/05/27 01:52:26;;;;;;;0.10;0.10;;;11.30;99.90;;;;;;5004954;28;20438;-81
2022/05/27 01:55:05;;;;;;;0.20;0.20;;;11.40;99.90;;;;;;4987569;28;21053;-84
2022/05/27 01:57:42;;;;;;;0.20;0.20;;;11.40;99.90;;;;;;5006573;28;20442;-82
2022/05/27 02:00:13;;;;;;;0.30;0.30;;;11.30;99.90;;;;;;4987155;28;20479;-82
2022/05/27 02:02:46;;;;;;;0.20;0.20;;;11.30;99.90;;;;;;5003289;28;20621;-82
2022/05/27 02:05:20;;;;;;;0.20;0.20;;;11.30;99.90;;;;;;4999140;28;20439;-82
2022/05/27 02:07:54;;;;;;;0.13;0.13;;;11.20;99.90;;;;;;4997497;28;20800;-84
2022/05/27 02:11:04;;;;;;;0.13;0.13;;;11.20;99.90;;;;;;4984577;28;20538;-83
2022/05/27 02:13:59;;;;;;;0.10;0.10;;;11.20;99.90;;;;;;4964010;28;21030;-83
2022/05/27 02:16:50;;;;;;;0.20;0.20;;;11.10;99.90;;;;;;5000798;28;21014;-82
2022/05/27 02:19:32;;;;;;;0.20;0.20;;;11.10;99.90;;;;;;5011147;28;20438;-82
2022/05/27 02:22:15;;;;;;;0.20;0.20;;;11.00;99.90;;;;;;5000815;28;20446;-81
2022/05/27 02:25:03;;;;;;;0.20;0.20;;;11.10;99.90;;;;;;5005564;28;20451;-82
2022/05/27 02:27:55;;;;;;;0.20;0.20;;;11.00;99.90;;;;;;5001303;28;20439;-82
2022/05/27 02:30:29;;;;;;;0.20;0.20;;;10.90;99.90;;;;;;4983455;28;20466;-82
2022/05/27 02:35:55;;;;;;;0.10;0.10;;;10.80;99.90;;;;;;5004609;28;20442;-82
2022/05/27 02:38:21;;;;;;;0.20;0.20;;;10.80;99.90;;;;;;5004765;28;20479;-83
2022/05/27 02:40:47;;;;;;;0.10;0.10;;;10.70;99.90;;;;;;5002792;28;20447;-82
2022/05/27 02:43:26;;;;;;;0.20;0.20;;;10.70;99.90;;;;;;5002322;28;20473;-82
2022/05/27 02:46:08;;;;;;;0.20;0.20;;;10.70;99.90;;;;;;5003117;28;20724;-82
2022/05/27 02:48:53;;;;;;;0.23;0.23;;;10.50;99.90;;;;;;4981885;28;20519;-83
2022/05/27 02:51:36;;;;;;;0.20;0.20;;;10.50;99.90;;;;;;4987399;28;20441;-83
2022/05/27 02:54:24;;;;;;;0.30;0.30;;;10.50;99.90;;;;;;5006826;28;20443;-89
2022/05/27 02:57:01;;;;;;;0.30;0.30;;;10.50;99.90;;;;;;4984174;28;20541;-82
2022/05/27 02:59:28;;;;;;;0.37;0.37;;;10.50;99.90;;;;;;5004901;28;20549;-83
2022/05/27 03:01:54;;;;;;;0.30;0.30;;;10.50;99.90;;;;;;5006772;28;20494;-84
2022/05/27 03:04:20;;;;;;;0.30;0.30;;;10.50;99.90;;;;;;5004583;28;20454;-84
2022/05/27 03:07:10;;;;;;;0.20;0.20;;;10.50;99.90;;;;;;5000893;28;20232;-82
2022/05/27 03:09:48;;;;;;;0.30;0.30;;;10.50;99.90;;;;;;5009327;28;20494;-83
2022/05/27 03:12:34;;;;;;;0.30;0.30;;;10.40;99.90;;;;;;4981409;28;20444;-83
2022/05/27 03:15:38;;;;;;;0.23;0.23;;;10.40;99.90;;;;;;5003943;28;20470;-84
2022/05/27 03:18:15;;;;;;;0.20;0.20;;;10.40;99.90;;;;;;4909885;29;20444;-84
2022/05/27 03:20:49;;;;;;;0.20;0.20;;;10.40;99.90;;;;;;4967898;28;20454;-84
2022/05/27 03:24:00;;;;;;;0.20;0.20;;;10.40;99.90;;;;;;5004453;28;20451;-84
2022/05/27 03:26:37;;;;;;;0.30;0.30;;;10.40;99.90;;;;;;4992794;28;20454;-84
2022/05/27 03:29:18;;;;;;;0.30;0.30;;;10.30;99.90;;;;;;4981539;28;20486;-83
2022/05/27 03:31:55;;;;;;;0.30;0.30;;;10.40;99.90;;;;;;5004371;28;20482;-82
2022/05/27 03:34:29;;;;;;;0.27;0.27;;;10.40;99.90;;;;;;5001212;28;20461;-81
2022/05/27 03:37:09;;;;;;;0.20;0.20;;;10.40;99.90;;;;;;5000961;28;20446;-83
2022/05/27 03:39:47;;;;;;;0.30;0.30;;;10.30;99.90;;;;;;4990382;28;20469;-85
2022/05/27 03:42:14;;;;;;;0.30;0.30;;;10.40;99.90;;;;;;4992516;28;20450;-83
2022/05/27 03:44:49;;;;;;;0.20;0.20;;;10.70;99.90;;;;;;4987516;28;20829;-86
2022/05/27 03:47:15;;;;;;;0.20;0.20;;;10.70;99.90;;;;;;4987954;28;20452;-84
2022/05/27 03:49:40;;;;;;;0.20;0.20;;;10.80;99.90;;;;;;4998566;28;20482;-82
2022/05/27 03:52:22;;;;;;;0.30;0.30;;;10.90;99.90;;;;;;5001349;28;20660;-83
2022/05/27 03:54:48;;;;;;;0.30;0.30;;;10.90;99.90;;;;;;5008967;28;20269;-82
2022/05/27 03:57:14;;;;;;;0.20;0.20;;;10.90;99.90;;;;;;5005421;28;20535;-82
2022/05/27 03:59:39;;;;;;;0.20;0.20;;;10.90;99.90;;;;;;4985792;28;20908;-82
2022/05/27 04:02:05;;;;;;;0.20;0.20;;;10.80;99.90;;;;;;5002126;28;20947;-82
2022/05/27 04:04:31;;;;;;;0.20;0.20;;;10.70;99.90;;;;;;5007426;28;20231;-82
2022/05/27 04:06:57;;;;;;;0.30;0.30;;;10.70;99.90;;;;;;5009810;28;20295;-82
2022/05/27 04:09:24;;;;;;;0.30;0.30;;;10.60;99.90;;;;;;5004445;28;20483;-81
2022/05/27 04:11:50;;;;;;;0.17;0.17;;;10.50;99.90;;;;;;5006292;28;20443;-81
2022/05/27 04:14:17;;;;;;;0.20;0.20;;;10.60;99.90;;;;;;5004916;28;20554;-82
2022/05/27 04:16:42;;;;;;;0.20;0.20;;;10.50;99.90;;;;;;5013341;28;20455;-82
2022/05/27 04:19:09;;;;;;;0.20;0.20;;;10.40;99.90;;;;;;5006200;28;20453;-81
2022/05/27 04:21:34;;;;;;;0.20;0.20;;;10.40;99.90;;;;;;5009675;28;20238;-82
2022/05/27 04:24:00;;;;;;;0.20;0.20;;;10.50;99.90;;;;;;4988497;28;20873;-81
2022/05/27 04:26:26;;;;;;;0.10;0.10;;;10.50;99.90;;;;;;5001491;28;20445;-82
2022/05/27 04:28:52;;;;;;;0.20;0.20;;;10.40;99.90;;;;;;4979651;28;20216;-83
2022/05/27 04:31:17;;;;;;;0.10;0.10;;;10.50;99.90;;;;;;4993088;28;20184;-84
2022/05/27 04:33:44;;;;;;;0.20;0.20;;;10.50;99.90;;;;;;4993087;28;20204;-85
2022/05/27 04:36:11;;;;;;;0.30;0.30;;;10.50;99.90;;;;;;5008344;28;20296;-82
2022/05/27 04:38:37;;;;;;;0.20;0.20;;;10.50;99.90;;;;;;4991934;28;20481;-82
2022/05/27 04:41:03;;;;;;;0.20;0.20;;;10.60;99.90;;;;;;5009194;28;20449;-82
2022/05/27 04:43:29;;;;;;;0.20;0.20;;;10.50;99.90;;;;;;5009225;28;20447;-84
2022/05/27 04:45:55;;;;;;;0.10;0.10;;;10.50;99.90;;;;;;4997140;28;20451;-82
2022/05/27 04:48:20;;;;;;;0.20;0.20;;;10.60;99.90;;;;;;5001235;28;20239;-83
2022/05/27 04:50:47;;;;;;;0.20;0.20;;;10.60;99.90;;;;;;5002504;28;20577;-83
2022/05/27 04:53:13;;;;;;;0.20;0.20;;;10.60;99.90;;;;;;5003130;28;20268;-83
2022/05/27 04:55:40;;;;;;;0.30;0.30;;;10.60;99.90;;;;;;5005206;28;20939;-83
2022/05/27 04:58:06;;;;;;;0.20;0.20;;;10.70;99.90;;;;;;5007303;28;20439;-84
2022/05/27 05:00:35;;;;;;;0.20;0.20;;;10.70;99.90;;;;;;4990796;28;20447;-83
2022/05/27 05:03:01;;;;;;;0.20;0.20;;;10.80;99.90;;;;;;4982752;28;21058;-82
2022/05/27 05:05:29;;;;;;;0.20;0.20;;;10.80;99.90;;;;;;5002396;28;20462;-84
2022/05/27 05:08:28;;;;;;;0.20;0.20;;;10.80;99.90;;;;;;5007703;28;20195;-82
2022/05/27 05:10:54;;;;;;;0.20;0.20;;;10.90;99.90;;;;;;5010019;28;20445;-85
2022/05/27 05:13:20;;;;;;;0.30;0.30;;;11.00;99.90;;;;;;4998727;28;20446;-81
2022/05/27 05:15:45;;;;;;;0.20;0.20;;;11.10;99.90;;;;;;5008674;28;20438;-80
2022/05/27 05:18:11;;;;;;;0.20;0.20;;;11.10;99.90;;;;;;5007496;28;20202;-83
2022/05/27 05:20:37;;;;;;;0.20;0.20;;;11.30;99.90;;;;;;5010020;28;20559;-80
2022/05/27 05:23:03;;;;;;;0.20;0.20;;;11.30;99.90;;;;;;5003308;28;20185;-82
2022/05/27 05:25:29;;;;;;;0.20;0.20;;;11.40;99.90;;;;;;5006821;28;20185;-83
2022/05/27 05:27:54;;;;;;;0.20;0.20;;;11.50;99.90;;;;;;5012959;28;20200;-81
2022/05/27 05:30:23;;;;;;;0.30;0.30;;;11.60;99.90;;;;;;4993547;28;20447;-81
2022/05/27 05:32:49;;;;;;;0.20;0.20;;;11.60;99.90;;;;;;5010186;28;20188;-84
2022/05/27 05:35:16;;;;;;;0.20;0.20;;;11.60;99.90;;;;;;5010660;28;20853;-83
2022/05/27 05:37:42;;;;;;;0.10;0.10;;;11.70;99.90;;;;;;4993651;28;20533;-89
2022/05/27 05:40:09;;;;;;;0.20;0.20;;;11.70;99.90;;;;;;4994863;28;20497;-84
2022/05/27 05:42:36;;;;;;;0.20;0.20;;;11.80;99.90;;;;;;5011590;28;20439;-85
2022/05/27 05:45:01;;;;;;;0.20;0.20;;;11.80;99.90;;;;;;5010339;28;20519;-82
2022/05/27 05:47:27;;;;;;;0.30;0.30;;;11.90;99.90;;;;;;5010596;28;20523;-83
2022/05/27 05:49:52;;;;;;;0.10;0.10;;;11.90;99.90;;;;;;5010876;28;20224;-83
2022/05/27 05:52:18;;;;;;;0.20;0.20;;;11.90;99.90;;;;;;5009908;28;20611;-86
2022/05/27 05:54:43;;;;;;;0.10;0.10;;;12.00;99.90;;;;;;5007265;28;20184;-84
2022/05/27 05:57:10;;;;;;;0.20;0.20;;;12.00;99.90;;;;;;5012497;28;20648;-84
2022/05/27 05:59:38;;;;;;;0.20;0.20;;;12.10;99.90;;;;;;5008666;28;20746;-83
2022/05/27 06:02:05;;;;;;;0.20;0.20;;;12.20;99.90;;;;;;5008689;28;20471;-87
2022/05/27 06:04:31;;;;;;;0.20;0.20;;;12.20;99.90;;;;;;4992793;28;20530;-85
2022/05/27 06:06:57;;;;;;;0.20;0.20;;;12.40;99.90;;;;;;5008590;28;20443;-84
2022/05/27 06:09:25;;;;;;;0.20;0.20;;;12.40;99.90;;;;;;5003710;28;20488;-84
2022/05/27 06:11:56;;;;;;;0.20;0.20;;;12.40;99.90;;;;;;4988801;28;20664;-84
2022/05/27 06:14:22;;;;;;;0.20;0.20;;;12.50;99.90;;;;;;5006938;28;20458;-83
2022/05/27 06:16:47;;;;;;;0.20;0.20;;;12.60;99.90;;;;;;5009719;28;20463;-85
2022/05/27 06:19:13;;;;;;;0.20;0.20;;;12.50;99.90;;;;;;5009411;28;20446;-85
2022/05/27 06:21:38;;;;;;;0.20;0.20;;;12.60;99.90;;;;;;5006781;28;20188;-85
2022/05/27 06:24:04;;;;;;;0.23;0.23;;;12.70;99.90;;;;;;4991612;28;20191;-86
2022/05/27 06:26:30;;;;;;;0.20;0.20;;;12.60;99.90;;;;;;4992962;28;20192;-86
2022/05/27 06:34:24;;;;;;;0.10;0.10;;;12.30;99.90;;;;;;5003358;28;20865;-86
2022/05/27 06:37:18;;;;;;;0.20;0.20;;;12.60;99.90;;;;;;5009160;28;20447;-86
2022/05/27 06:39:44;;;;;;;0.10;0.10;;;12.80;99.90;;;;;;5011271;28;20192;-88
2022/05/27 06:42:11;;;;;;;0.20;0.20;;;12.90;99.90;;;;;;4993497;28;20449;-84
2022/05/27 06:44:37;;;;;;;0.10;0.10;;;12.90;99.90;;;;;;4990301;28;20192;-83
2022/05/27 06:47:04;;;;;;;0.20;0.20;;;13.00;99.90;;;;;;5005096;28;20820;-82
2022/05/27 06:49:30;;;;;;;0.20;0.20;;;13.10;99.90;;;;;;5006834;28;20578;-83
2022/05/27 06:51:57;;;;;;;0.10;0.10;;;13.30;99.90;;;;;;5005068;28;24664;-81
2022/05/27 06:54:23;;;;;;;0.20;0.20;;;13.30;99.90;;;;;;5002771;28;20192;-81
2022/05/27 06:56:52;;;;;;;0.20;0.20;;;13.50;99.90;;;;;;5007046;28;20447;-84
2022/05/27 06:59:19;;;;;;;0.20;0.20;;;13.60;99.90;;;;;;5006786;28;20469;-83
2022/05/27 07:01:45;;;;;;;0.20;0.20;;;13.00;99.90;;;;;;5007545;28;20479;-86
2022/05/27 07:04:11;;;;;;;0.10;0.10;;;12.10;99.90;;;;;;4989600;28;20509;-81
2022/05/27 07:06:41;;;;;;;0.20;0.20;;;11.70;99.90;;;;;;4989058;28;21126;-84
2022/05/27 07:09:08;;;;;;;0.30;0.30;;;11.20;99.90;;;;;;5006592;28;20515;-89
2022/05/27 07:11:35;;;;;;;0.20;0.20;;;11.10;99.90;;;;;;4990186;28;20451;-83
2022/05/27 07:14:02;;;;;;;0.20;0.20;;;11.30;99.90;;;;;;5009004;28;20435;-82
2022/05/27 07:16:27;;;;;;;0.30;0.30;;;11.70;99.90;;;;;;4987637;28;20447;-83
2022/05/27 07:18:54;;;;;;;0.20;0.20;;;12.00;99.90;;;;;;5006965;28;20957;-83
2022/05/27 07:21:19;;;;;;;0.10;0.10;;;12.30;99.90;;;;;;5004297;28;20639;-85
2022/05/27 07:23:45;;;;;;;0.10;0.10;;;12.50;99.90;;;;;;5007279;28;20447;-82
2022/05/27 07:26:11;;;;;;;0.20;0.20;;;12.70;99.90;;;;;;5005552;28;20188;-84
2022/05/27 07:28:37;;;;;;;0.20;0.20;;;12.90;99.90;;;;;;5000828;28;20582;-84
2022/05/27 07:31:02;;;;;;;0.10;0.10;;;13.10;99.90;;;;;;4983676;28;20184;-83
2022/05/27 07:33:29;;;;;;;0.30;0.30;;;13.20;99.90;;;;;;5002853;28;20188;-83
2022/05/27 07:35:55;;;;;;;0.20;0.20;;;13.40;99.90;;;;;;5004398;28;20185;-84
2022/05/27 07:38:21;;;;;;;0.10;0.10;;;13.50;99.90;;;;;;4986411;28;20451;-82
2022/05/27 07:40:46;;;;;;;0.20;0.20;;;13.50;99.90;;;;;;4999624;28;20440;-86
2022/05/27 07:43:12;;;;;;;0.20;0.20;;;13.60;99.90;;;;;;4983649;28;21282;-85
2022/05/27 07:45:40;;;;;;;0.10;0.10;;;14.00;99.90;;;;;;5009768;28;20192;-82
2022/05/27 07:48:06;;;;;;;0.40;0.40;;;14.00;99.90;;;;;;5005329;28;20471;-83
2022/05/27 07:50:32;;;;;;;0.20;0.20;;;14.00;99.90;;;;;;5005417;28;20501;-83
2022/05/27 07:52:58;;;;;;;0.20;0.20;;;14.10;99.90;;;;;;5004082;28;20529;-83
2022/05/27 07:55:24;;;;;;;0.20;0.20;;;13.70;99.90;;;;;;5007108;28;20455;-84
2022/05/27 07:57:50;;;;;;;0.20;0.20;;;13.40;99.90;;;;;;5005842;28;20194;-87
2022/05/27 08:00:18;;;;;;;0.20;0.20;;;12.80;99.90;;;;;;4997082;28;20181;-84
2022/05/27 08:02:44;;;;;;;0.23;0.23;;;12.50;99.90;;;;;;5001586;28;20514;-82
2022/05/27 08:05:12;;;;;;;0.20;0.20;;;12.20;99.90;;;;;;5008116;28;20475;-83
2022/05/27 08:07:38;;;;;;;0.20;0.20;;;12.10;99.90;;;;;;5006589;28;20535;-85
2022/05/27 08:10:06;;;;;;;0.20;0.20;;;12.30;99.90;;;;;;5010276;28;21024;-86
2022/05/27 08:12:32;;;;;;;0.20;0.20;;;12.50;99.90;;;;;;4992946;28;20469;-84
2022/05/27 08:14:57;;;;;;;0.10;0.10;;;13.00;99.90;;;;;;5010174;28;20502;-85
2022/05/27 08:17:23;;;;;;;0.27;0.27;;;13.40;99.90;;;;;;4990936;28;20475;-83
2022/05/27 08:19:49;;;;;;;0.20;0.20;;;13.60;99.90;;;;;;5010133;28;20223;-84
2022/05/27 08:22:15;;;;;;;0.30;0.30;;;14.00;99.90;;;;;;5011638;28;20196;-86
2022/05/27 08:24:41;;;;;;;0.20;0.20;;;14.00;99.90;;;;;;4998948;28;20678;-81
2022/05/27 08:27:07;;;;;;;0.10;0.10;;;14.10;99.90;;;;;;4989909;28;20467;-83
2022/05/27 08:29:33;;;;;;;0.20;0.20;;;14.50;99.90;;;;;;4993999;28;20488;-83
2022/05/27 08:32:03;;;;;;;0.27;0.27;;;14.60;99.90;;;;;;5006230;28;20188;-83
2022/05/27 08:40:06;;;;;;;0.10;0.10;;;14.80;99.90;;;;;;5009460;28;20933;-90
2022/05/27 08:43:04;;;;;;;0.10;0.10;;;15.00;99.90;;;;;;5007651;28;20446;-81
2022/05/27 08:45:37;;;;;;;0.10;0.10;;;14.90;99.90;;;;;;4983778;28;20585;-83
2022/05/27 08:48:08;;;;;;;0.10;0.10;;;15.20;99.90;;;;;;4991913;28;20439;-83
2022/05/27 08:50:43;;;;;;;0.10;0.10;;;15.00;99.90;;;;;;5003164;28;20481;-81
2022/05/27 08:53:29;;;;;;;0.10;0.10;;;15.20;99.90;;;;;;5005188;28;20474;-85
2022/05/27 09:01:38;;;;;;;0.10;0.10;;;15.20;99.90;;;;;;5007973;28;20576;-79
2022/05/27 09:04:19;;;;;;;0.10;0.10;;;15.20;99.90;;;;;;5002800;28;20451;-82
2022/05/27 09:06:55;;;;;;;0.10;0.10;;;15.10;99.90;;;;;;5007898;28;21005;-81
2022/05/27 09:09:23;;;;;;;0.20;0.20;;;14.60;99.90;;;;;;4994894;28;20490;-80
2022/05/27 09:12:08;;;;;;;0.10;0.10;;;14.70;99.90;;;;;;4993605;28;20435;-79
2022/05/27 09:14:41;;;;;;;0.10;0.10;;;14.70;99.90;;;;;;5001346;28;20451;-81
2022/05/27 09:17:14;;;;;;;0.20;0.20;;;14.90;99.90;;;;;;4999048;28;20443;-80
2022/05/27 09:19:51;;;;;;;0.30;0.30;;;15.00;99.90;;;;;;5004025;28;20451;-81
2022/05/27 09:22:43;;;;;;;0.40;0.40;;;15.00;99.90;;;;;;5007230;28;20454;-81
2022/05/27 09:25:15;;;;;;;0.10;0.10;;;15.70;99.90;;;;;;5007006;28;20938;-80
2022/05/27 09:28:07;;;;;;;0.30;0.30;;;15.60;99.90;;;;;;5000626;28;20517;-81
2022/05/27 09:30:36;;;;;;;0.10;0.10;;;15.50;99.90;;;;;;4998882;28;20550;-80
2022/05/27 09:33:08;;;;;;;0.10;0.10;;;15.40;99.90;;;;;;4997204;28;21007;-84
2022/05/27 09:36:02;;;;;;;0.20;0.20;;;14.10;99.90;;;;;;5001228;28;20462;-83
2022/05/27 09:38:31;;;;;;;0.10;0.10;;;11.60;99.90;;;;;;5003464;28;20480;-84
2022/05/27 09:40:59;;;;;;;0.10;0.10;;;10.60;99.90;;;;;;4972540;28;20448;-86
2022/05/27 09:43:45;;;;;;;0.30;0.30;;;10.50;99.90;;;;;;4999862;28;20511;-86
2022/05/27 09:46:14;;;;;;;0.10;0.10;;;10.60;99.90;;;;;;5006589;28;20456;-87
2022/05/27 09:48:40;;;;;;;0.23;0.23;;;10.80;99.90;;;;;;5008812;28;21104;-83
2022/05/27 09:51:09;;;;;;;0.20;0.20;;;11.60;99.90;;;;;;5007560;28;20451;-88
2022/05/27 09:53:40;;;;;;;0.10;0.10;;;12.60;99.90;;;;;;5019364;28;20194;-82
2022/05/27 09:56:09;;;;;;;0.10;0.10;;;13.20;99.90;;;;;;5008556;28;20530;-82
2022/05/27 09:58:46;;;;;;;0.10;0.10;;;13.00;99.90;;;;;;5010625;28;20954;-82
2022/05/27 10:01:25;;;;;;;0.20;0.20;;;12.80;99.90;;;;;;5005370;28;20474;-83
2022/05/27 10:04:11;;;;;;;0.10;0.10;;;12.50;99.90;;;;;;5007431;28;20474;-82
2022/05/27 10:06:37;;;;;;;0.10;0.10;;;12.20;99.90;;;;;;5008957;28;21033;-81
2022/05/27 10:09:08;;;;;;;0.10;0.10;;;11.90;99.90;;;;;;5011452;28;20483;-81
2022/05/27 10:11:46;;;;;;;0.20;0.20;;;11.70;99.90;;;;;;5010889;28;20442;-82
2022/05/27 10:14:28;;;;;;;0.10;0.10;;;11.60;99.90;;;;;;4990308;28;20961;-81
2022/05/27 10:17:13;;;;;;;0.10;0.10;;;12.10;99.90;;;;;;5009560;28;20495;-81
2022/05/27 10:19:41;;;;;;;0.30;0.30;;;13.20;99.90;;;;;;4992205;28;20486;-79
2022/05/27 10:22:19;;;;;;;0.20;0.20;;;14.00;99.90;;;;;;5006320;28;20940;-79
2022/05/27 10:24:54;;;;;;;0.23;0.23;;;14.90;99.90;;;;;;4993059;28;20450;-79
2022/05/27 10:27:20;;;;;;;0.23;0.23;;;14.90;99.90;;;;;;4990354;28;20565;-79
2022/05/27 10:29:57;;;;;;;0.10;0.10;;;14.90;99.90;;;;;;5001587;28;20485;-79
2022/05/27 10:32:38;;;;;;;0.10;0.10;;;14.30;99.90;;;;;;5011336;28;20431;-80
2022/05/27 10:35:29;;;;;;;0.10;0.10;;;14.70;99.90;;;;;;4990676;28;20522;-81
2022/05/27 10:38:16;;;;;;;0.10;0.10;;;15.10;99.90;;;;;;4986478;28;20940;-80
2022/05/27 10:40:51;;;;;;;0.10;0.10;;;15.70;99.90;;;;;;4977179;28;20498;-85
2022/05/27 10:43:32;;;;;;;0.10;0.10;;;14.30;99.90;;;;;;5006101;28;20535;-84
2022/05/27 10:46:03;;;;;;;0.10;0.10;;;12.80;99.90;;;;;;4995383;28;20451;-83
2022/05/27 10:48:45;;;;;;;0.20;0.20;;;12.00;99.90;;;;;;4983003;28;20558;-84
2022/05/27 10:51:44;;;;;;;0.20;0.20;;;11.40;99.90;;;;;;4992330;28;20857;-85
2022/05/27 10:54:26;;;;;;;0.20;0.20;;;11.70;99.90;;;;;;5006339;28;20530;-81
2022/05/27 11:03:14;;;;;;;0.10;0.10;;;15.00;99.90;;;;;;5004046;28;20588;-82
2022/05/27 11:05:52;;;;;;;0.30;0.30;;;15.70;99.90;;;;;;4996474;28;20446;-90
2022/05/27 11:08:30;;;;;;;0.40;0.40;;;16.10;99.90;;;;;;4997776;28;20454;-82
2022/05/27 11:11:25;;;;;;;0.10;0.10;;;16.40;99.90;;;;;;4991301;28;20452;-81
2022/05/27 11:17:07;;;;;;;0.10;0.10;;;16.50;99.90;;;;;;4992162;28;20446;-81
2022/05/27 11:19:41;;;;;;;0.47;0.47;;;16.50;99.90;;;;;;5008975;28;20550;-86
2022/05/27 11:22:27;;;;;;;0.13;0.13;;;16.80;99.90;;;;;;4992849;28;20451;-84
2022/05/27 11:25:15;;;;;;;0.10;0.10;;;17.10;99.90;;;;;;5007022;28;20513;-80
2022/05/27 11:27:55;;;;;;;0.10;0.10;;;15.40;99.90;;;;;;4987263;28;20805;-81
2022/05/27 11:30:52;;;;;;;0.10;0.10;;;15.10;99.90;;;;;;5005953;28;20642;-84
2022/05/27 11:33:52;;;;;;;0.10;0.10;;;14.60;99.90;;;;;;4974086;28;20447;-82
2022/05/27 11:36:27;;;;;;;0.10;0.10;;;14.80;99.90;;;;;;5002402;28;20999;-79
2022/05/27 11:39:23;;;;;;;0.10;0.10;;;15.60;99.90;;;;;;4998546;28;20455;-83
2022/05/27 11:42:01;;;;;;;0.10;0.10;;;16.30;99.90;;;;;;5008583;28;20451;-88
2022/05/27 11:44:53;;;;;;;0.10;0.10;;;17.50;99.90;;;;;;5008174;28;20443;-84
2022/05/27 11:47:50;;;;;;;0.10;0.10;;;17.30;99.90;;;;;;5003103;28;20430;-79
2022/05/27 11:50:35;;;;;;;0.10;0.10;;;15.60;99.90;;;;;;5008007;28;20493;-80
2022/05/27 11:53:25;;;;;;;0.20;0.20;;;13.90;99.90;;;;;;4989056;28;20498;-78
2022/05/27 11:56:03;;;;;;;0.20;0.20;;;13.20;99.90;;;;;;4987550;28;20447;-81
2022/05/27 11:58:44;;;;;;;0.20;0.20;;;13.30;99.90;;;;;;4999920;28;20526;-79
2022/05/27 12:01:15;;;;;;;0.20;0.20;;;13.80;99.90;;;;;;5007725;28;20482;-81
2022/05/27 12:03:48;;;;;;;0.20;0.20;;;13.90;99.90;;;;;;5005893;28;20462;-82
2022/05/27 12:06:18;;;;;;;0.37;0.37;;;13.60;99.90;;;;;;5007231;28;20537;-82
2022/05/27 12:08:53;;;;;;;0.20;0.20;;;13.20;99.90;;;;;;4991052;28;20498;-79
2022/05/27 12:11:33;;;;;;;0.30;0.30;;;13.80;99.90;;;;;;5005493;28;20940;-76
2022/05/27 12:14:15;;;;;;;0.20;0.20;;;14.30;99.90;;;;;;5000352;28;20447;-79
2022/05/27 12:16:44;;;;;;;0.10;0.10;;;13.70;99.90;;;;;;4991919;28;20442;-80
2022/05/27 12:19:16;;;;;;;0.10;0.10;;;13.40;99.90;;;;;;5004107;28;20474;-84
2022/05/27 12:21:47;;;;;;;0.10;0.10;;;13.10;99.90;;;;;;5004291;28;20451;-83
2022/05/27 12:24:12;;;;;;;0.10;0.10;;;13.00;99.90;;;;;;5003672;28;20510;-82
2022/05/27 12:26:39;;;;;;;0.20;0.20;;;14.00;99.90;;;;;;4997939;28;20530;-81
2022/05/27 12:29:09;;;;;;;0.10;0.10;;;15.20;99.90;;;;;;5010304;28;20220;-85
2022/05/27 12:31:35;;;;;;;0.10;0.10;;;16.00;99.90;;;;;;5007630;28;20447;-84
2022/05/27 12:34:26;;;;;;;0.10;0.10;;;16.20;99.90;;;;;;5010446;28;20454;-84
2022/05/27 12:36:53;;;;;;;0.10;0.00;;;16.30;99.90;;;;;;4989182;28;20445;-85
2022/05/27 12:39:27;;;;;;;0.10;0.10;;;16.20;99.90;;;;;;5010730;28;20446;-91
2022/05/27 12:42:10;;;;;;;0.00;0.00;;;16.30;99.90;;;;;;5010318;28;20426;-86
2022/05/27 12:44:37;;;;;;;0.10;0.10;;;15.30;99.90;;;;;;5012070;28;20510;-89
2022/05/27 12:47:04;;;;;;;0.10;0.10;;;14.80;99.90;;;;;;4992635;28;20415;-88
2022/05/27 12:49:37;;;;;;;0.10;0.10;;;15.70;99.90;;;;;;4992672;28;20570;-82
2022/05/27 12:52:06;;;;;;;0.10;0.10;;;15.80;99.90;;;;;;5006638;28;20447;-83
2022/05/27 12:54:46;;;;;;;0.10;0.10;;;16.30;99.90;;;;;;5002026;28;20541;-84
2022/05/27 13:03:33;;;;;;;0.10;0.10;;;14.80;99.90;;;;;;5009298;28;20490;-83
2022/05/27 13:06:17;;;;;;;0.10;0.10;;;13.70;99.90;;;;;;5006235;28;20455;-80
2022/05/27 13:08:52;;;;;;;0.10;0.10;;;12.80;99.90;;;;;;4988657;28;20502;-80
2022/05/27 13:11:24;;;;;;;0.20;0.20;;;12.40;99.90;;;;;;4994315;28;20459;-81
2022/05/27 13:14:04;;;;;;;0.10;0.10;;;12.10;99.90;;;;;;4990362;28;20445;-83
2022/05/27 13:16:40;;;;;;;0.10;0.10;;;12.20;99.90;;;;;;4999553;28;20446;-81
2022/05/27 13:19:08;;;;;;;0.13;0.13;;;12.10;99.90;;;;;;5007876;28;20462;-85
2022/05/27 13:21:44;;;;;;;0.17;0.17;;;12.00;99.90;;;;;;4998065;28;21229;-82
2022/05/27 13:24:15;;;;;;;0.10;0.10;;;12.40;99.90;;;;;;4987560;28;20458;-80
2022/05/27 13:26:49;;;;;;;0.10;0.10;;;12.60;99.90;;;;;;4981311;28;21143;-82
2022/05/27 13:29:56;;;;;;;0.10;0.10;;;12.60;99.90;;;;;;4991947;28;20471;-78
2022/05/27 13:32:27;;;;;;;0.10;0.10;;;12.30;99.90;;;;;;4983895;28;20465;-80
2022/05/27 13:35:15;;;;;;;0.20;0.20;;;12.00;99.90;;;;;;4990969;28;20943;-83
2022/05/27 13:37:41;;;;;;;0.20;0.20;;;11.70;99.90;;;;;;4995255;28;20439;-80
2022/05/27 13:40:09;;;;;;;0.20;0.20;;;11.30;99.90;;;;;;4996480;28;20492;-80
2022/05/27 13:42:56;;;;;;;0.20;0.20;;;10.90;99.90;;;;;;5004921;28;20223;-80
2022/05/27 13:45:29;;;;;;;0.20;0.20;;;10.90;99.90;;;;;;4980804;28;20457;-80
2022/05/27 13:48:10;;;;;;;0.20;0.20;;;10.60;99.90;;;;;;4993598;28;20449;-79
2022/05/27 13:50:41;;;;;;;0.10;0.10;;;11.10;99.90;;;;;;4993680;28;20509;-80
2022/05/27 13:53:25;;;;;;;0.10;0.10;;;12.40;99.90;;;;;;4994454;28;20417;-79